sensor_id;sensor_type;location;lat;lon;timestamp;P1;durP1;ratioP1;P2;durP2;ratioP2
65053;SDS011;51639;47.828;35.038;2023-08-01T00:06:38;14.43;;;8.83;;
65053;SDS011;51639;47.828;35.038;2023-08-01T00:21:41;16.30;;;10.80;;
65053;SDS011;51639;47.828;35.038;2023-08-01T00:36:43;14.17;;;8.50;;
65053;SDS011;51639;47.828;35.038;2023-08-01T00:51:45;11.37;;;9.07;;
65053;SDS011;51639;47.828;35.038;2023-08-01T01:21:52;13.35;;;9.05;;
65053;SDS011;51639;47.828;35.038;2023-08-01T01:37:13;17.30;;;10.75;;
65053;SDS011;51639;47.828;35.038;2023-08-01T01:52:15;17.60;;;9.03;;
65053;SDS011;51639;47.828;35.038;2023-08-01T02:07:17;14.47;;;9.17;;
65053;SDS011;51639;47.828;35.038;2023-08-01T02:37:21;13.27;;;8.75;;
65053;SDS011;51639;47.828;35.038;2023-08-01T02:52:23;12.13;;;9.33;;
65053;SDS011;51639;47.828;35.038;2023-08-01T03:07:25;12.77;;;9.77;;
65053;SDS011;51639;47.828;35.038;2023-08-01T03:22:27;14.73;;;10.97;;
65053;SDS011;51639;47.828;35.038;2023-08-01T03:37:29;17.33;;;11.23;;
65053;SDS011;51639;47.828;35.038;2023-08-01T03:52:31;16.77;;;10.57;;
65053;SDS011;51639;47.828;35.038;2023-08-01T04:07:33;19.55;;;11.63;;
65053;SDS011;51639;47.828;35.038;2023-08-01T04:22:39;16.88;;;11.20;;
65053;SDS011;51639;47.828;35.038;2023-08-01T04:37:41;18.10;;;12.38;;
65053;SDS011;51639;47.828;35.038;2023-08-01T05:07:45;22.02;;;13.48;;
65053;SDS011;51639;47.828;35.038;2023-08-01T05:22:47;17.42;;;12.45;;
65053;SDS011;51639;47.828;35.038;2023-08-01T05:37:49;13.55;;;10.52;;
65053;SDS011;51639;47.828;35.038;2023-08-01T05:52:51;11.63;;;9.27;;
65053;SDS011;51639;47.828;35.038;2023-08-01T06:07:53;19.85;;;8.88;;
65053;SDS011;51639;47.828;35.038;2023-08-01T06:22:55;20.88;;;10.52;;
65053;SDS011;51639;47.828;35.038;2023-08-01T06:37:57;12.02;;;8.18;;
65053;SDS011;51639;47.828;35.038;2023-08-01T06:52:59;11.98;;;7.22;;
65053;SDS011;51639;47.828;35.038;2023-08-01T07:08:02;8.05;;;6.20;;
65053;SDS011;51639;47.828;35.038;2023-08-01T07:23:05;5.88;;;4.70;;
65053;SDS011;51639;47.828;35.038;2023-08-01T07:38:06;9.52;;;5.25;;
65053;SDS011;51639;47.828;35.038;2023-08-01T07:53:09;7.05;;;5.65;;
65053;SDS011;51639;47.828;35.038;2023-08-01T08:08:11;5.00;;;4.45;;
65053;SDS011;51639;47.828;35.038;2023-08-01T08:23:13;7.15;;;4.47;;
65053;SDS011;51639;47.828;35.038;2023-08-01T08:38:16;6.07;;;4.03;;
65053;SDS011;51639;47.828;35.038;2023-08-01T08:53:19;5.07;;;3.65;;
65053;SDS011;51639;47.828;35.038;2023-08-01T09:08:23;11.52;;;4.00;;
65053;SDS011;51639;47.828;35.038;2023-08-01T09:23:30;5.07;;;3.97;;
65053;SDS011;51639;47.828;35.038;2023-08-01T09:38:35;5.97;;;3.90;;
65053;SDS011;51639;47.828;35.038;2023-08-01T09:53:51;4.38;;;3.55;;
65053;SDS011;51639;47.828;35.038;2023-08-01T10:08:55;4.33;;;3.40;;
65053;SDS011;51639;47.828;35.038;2023-08-01T10:23:57;3.78;;;3.35;;
65053;SDS011;51639;47.828;35.038;2023-08-01T10:39:01;6.25;;;3.22;;
65053;SDS011;51639;47.828;35.038;2023-08-01T10:54:04;3.95;;;3.47;;
65053;SDS011;51639;47.828;35.038;2023-08-01T11:09:14;5.80;;;2.70;;
65053;SDS011;51639;47.828;35.038;2023-08-01T11:24:26;4.28;;;2.92;;
65053;SDS011;51639;47.828;35.038;2023-08-01T11:39:29;4.15;;;3.13;;
65053;SDS011;51639;47.828;35.038;2023-08-01T11:54:32;10.38;;;7.22;;
65053;SDS011;51639;47.828;35.038;2023-08-01T12:09:34;7.45;;;5.30;;
65053;SDS011;51639;47.828;35.038;2023-08-01T12:24:36;7.47;;;5.40;;
65053;SDS011;51639;47.828;35.038;2023-08-01T12:39:39;10.10;;;6.30;;
65053;SDS011;51639;47.828;35.038;2023-08-01T12:54:41;10.65;;;6.85;;
65053;SDS011;51639;47.828;35.038;2023-08-01T13:09:43;7.65;;;6.00;;
65053;SDS011;51639;47.828;35.038;2023-08-01T13:24:45;9.32;;;5.65;;
65053;SDS011;51639;47.828;35.038;2023-08-01T13:39:48;8.52;;;5.93;;
65053;SDS011;51639;47.828;35.038;2023-08-01T13:54:50;15.73;;;7.40;;
65053;SDS011;51639;47.828;35.038;2023-08-01T14:09:52;12.45;;;6.85;;
65053;SDS011;51639;47.828;35.038;2023-08-01T14:24:54;13.63;;;7.85;;
65053;SDS011;51639;47.828;35.038;2023-08-01T14:39:57;11.75;;;8.13;;
65053;SDS011;51639;47.828;35.038;2023-08-01T14:54:59;19.33;;;7.45;;
65053;SDS011;51639;47.828;35.038;2023-08-01T15:10:01;10.80;;;7.57;;
65053;SDS011;51639;47.828;35.038;2023-08-01T15:25:03;17.30;;;11.77;;
65053;SDS011;51639;47.828;35.038;2023-08-01T15:40:05;16.00;;;10.52;;
65053;SDS011;51639;47.828;35.038;2023-08-01T15:55:08;10.82;;;7.55;;
65053;SDS011;51639;47.828;35.038;2023-08-01T16:10:10;11.43;;;8.35;;
65053;SDS011;51639;47.828;35.038;2023-08-01T16:25:12;16.90;;;9.15;;
65053;SDS011;51639;47.828;35.038;2023-08-01T16:40:14;15.27;;;9.68;;
65053;SDS011;51639;47.828;35.038;2023-08-01T16:55:17;12.80;;;8.88;;
65053;SDS011;51639;47.828;35.038;2023-08-01T17:10:19;16.30;;;10.45;;
65053;SDS011;51639;47.828;35.038;2023-08-01T17:25:21;12.60;;;9.73;;
65053;SDS011;51639;47.828;35.038;2023-08-01T17:40:23;9.93;;;5.03;;
65053;SDS011;51639;47.828;35.038;2023-08-01T17:55:26;8.65;;;4.28;;
65053;SDS011;51639;47.828;35.038;2023-08-01T18:10:29;8.57;;;4.07;;
65053;SDS011;51639;47.828;35.038;2023-08-01T18:25:33;7.35;;;3.30;;
65053;SDS011;51639;47.828;35.038;2023-08-01T18:40:36;3.67;;;2.92;;
65053;SDS011;51639;47.828;35.038;2023-08-01T18:55:40;5.97;;;3.40;;
65053;SDS011;51639;47.828;35.038;2023-08-01T19:10:42;5.57;;;3.47;;
65053;SDS011;51639;47.828;35.038;2023-08-01T19:25:44;5.43;;;4.43;;
65053;SDS011;51639;47.828;35.038;2023-08-01T19:40:46;5.70;;;3.43;;
65053;SDS011;51639;47.828;35.038;2023-08-01T19:55:49;6.32;;;3.20;;
65053;SDS011;51639;47.828;35.038;2023-08-01T20:10:59;4.18;;;3.35;;
65053;SDS011;51639;47.828;35.038;2023-08-01T20:26:02;5.32;;;3.30;;
65053;SDS011;51639;47.828;35.038;2023-08-01T20:41:11;8.40;;;5.60;;
65053;SDS011;51639;47.828;35.038;2023-08-01T20:56:14;5.63;;;3.58;;
65053;SDS011;51639;47.828;35.038;2023-08-01T21:11:16;4.50;;;3.60;;
65053;SDS011;51639;47.828;35.038;2023-08-01T21:26:18;5.17;;;3.97;;
65053;SDS011;51639;47.828;35.038;2023-08-01T21:41:20;6.10;;;5.10;;
65053;SDS011;51639;47.828;35.038;2023-08-01T21:56:22;7.20;;;5.27;;
65053;SDS011;51639;47.828;35.038;2023-08-01T22:11:23;16.80;;;8.90;;
65053;SDS011;51639;47.828;35.038;2023-08-01T22:26:25;10.40;;;5.70;;
65053;SDS011;51639;47.828;35.038;2023-08-01T22:41:27;14.07;;;6.77;;
65053;SDS011;51639;47.828;35.038;2023-08-01T22:56:29;21.00;;;8.43;;
65053;SDS011;51639;47.828;35.038;2023-08-01T23:11:33;22.95;;;10.18;;
65053;SDS011;51639;47.828;35.038;2023-08-01T23:26:35;17.17;;;9.73;;
65053;SDS011;51639;47.828;35.038;2023-08-01T23:41:37;15.47;;;7.10;;
65053;SDS011;51639;47.828;35.038;2023-08-01T23:56:39;21.73;;;11.33;;
